createdAt,value
2023-03-15T00:01:51.474Z,0
2023-03-15T00:07:16.832Z,0
2023-03-15T00:12:39.429Z,0
2023-03-15T00:18:05.601Z,0
2023-03-15T00:23:28.119Z,0
2023-03-15T00:28:54.159Z,0
2023-03-15T00:34:16.677Z,0
2023-03-15T00:39:48.740Z,0
2023-03-15T00:45:32.963Z,0
2023-03-15T00:50:55.349Z,0
2023-03-15T00:56:18.018Z,0
2023-03-15T01:01:43.286Z,0
2023-03-15T01:12:47.596Z,0
2023-03-15T01:18:10.181Z,0
2023-03-15T01:23:32.763Z,0
2023-03-15T01:29:03.390Z,0
2023-03-15T01:34:26.025Z,0
2023-03-15T01:39:51.765Z,0
2023-03-15T01:45:14.872Z,0
2023-03-15T01:50:37.726Z,0
2023-03-15T01:56:03.434Z,0
2023-03-15T02:01:37.370Z,0
2023-03-15T02:06:59.947Z,0
2023-03-15T02:12:22.642Z,0
2023-03-15T02:17:45.521Z,0
2023-03-15T02:23:11.574Z,0
2023-03-15T02:28:34.205Z,0
2023-03-15T02:33:56.879Z,0
2023-03-15T02:39:44.485Z,0
2023-03-15T02:45:07.235Z,0
2023-03-15T02:50:29.936Z,0
2023-03-15T02:55:55.337Z,0
2023-03-15T03:01:23.905Z,0
2023-03-15T15:19:11.416Z,392.2
2023-03-15T15:24:33.482Z,343.1
2023-03-15T15:29:58.202Z,319.4
2023-03-15T15:35:28.015Z,292.7
2023-03-15T15:40:50.487Z,279.5
2023-03-15T15:46:12.856Z,270.2
2023-03-15T15:51:38.081Z,253.8
2023-03-15T15:57:00.264Z,228.4
2023-03-15T16:02:34.168Z,201.8
2023-03-15T16:07:56.504Z,187.8
2023-03-15T16:13:19.131Z,178.6
2023-03-15T16:18:41.562Z,176.8
2023-03-15T16:24:06.417Z,158.7
2023-03-15T16:29:28.703Z,148.4
2023-03-15T16:34:51.298Z,129
2023-03-15T16:40:25.234Z,122.8
2023-03-15T16:45:47.990Z,113.4
2023-03-15T16:51:10.299Z,101.9
2023-03-15T17:02:03.673Z,43.3
2023-03-15T17:07:26.250Z,34.4
2023-03-15T17:13:00.240Z,31.5
2023-03-15T17:18:22.698Z,23.2
2023-03-15T17:23:44.853Z,22.1
2023-03-15T17:34:33.380Z,16
2023-03-15T17:39:55.919Z,7
2023-03-15T17:45:25.491Z,1
2023-03-15T17:56:23.796Z,0
2023-03-15T18:01:46.364Z,0
2023-03-15T18:08:04.107Z,0
2023-03-15T18:13:27.137Z,0
2023-03-15T18:18:56.880Z,0
2023-03-15T18:24:19.318Z,0
2023-03-15T18:29:43.527Z,0
2023-03-15T18:35:14.536Z,0
2023-03-15T18:40:37.624Z,0
2023-03-15T18:46:00.259Z,0
2023-03-15T18:51:25.568Z,0
2023-03-15T18:56:50.197Z,0
2023-03-15T19:02:12.772Z,0
2023-03-15T19:07:59.077Z,0
2023-03-15T19:13:24.622Z,0
2023-03-15T19:18:47.356Z,0
2023-03-15T19:24:10.062Z,0
2023-03-15T19:29:34.695Z,0
2023-03-15T19:34:56.997Z,0
2023-03-15T19:40:19.674Z,0
2023-03-15T19:45:49.686Z,0
2023-03-15T19:51:13.010Z,0
2023-03-15T19:56:35.661Z,0
2023-03-15T20:02:11.854Z,0
2023-03-15T20:07:34.913Z,0
2023-03-15T20:12:57.468Z,0
2023-03-15T20:18:20.197Z,0
2023-03-15T20:23:50.156Z,0
2023-03-15T20:29:12.633Z,0
2023-03-15T20:34:35.195Z,0
2023-03-15T20:39:57.891Z,0
2023-03-15T20:45:20.826Z,0
2023-03-15T20:50:46.483Z,0
2023-03-15T20:56:09.380Z,0
2023-03-15T21:01:32.761Z,0
2023-03-15T21:06:55.243Z,0
2023-03-15T21:12:28.495Z,0
2023-03-15T21:17:51.598Z,0
2023-03-15T21:23:19.406Z,0
2023-03-15T21:28:42.919Z,0
2023-03-15T21:34:05.150Z,0
2023-03-15T21:39:27.814Z,0
2023-03-15T21:44:57.451Z,0
2023-03-15T21:50:19.906Z,0
2023-03-15T21:56:03.284Z,0
2023-03-15T22:01:28.949Z,0
2023-03-15T22:06:56.683Z,0
2023-03-15T22:12:19.269Z,0
2023-03-15T22:17:42.205Z,0
2023-03-15T22:23:04.686Z,0
2023-03-15T22:28:27.358Z,0
2023-03-15T22:33:52.024Z,0
2023-03-15T22:39:14.850Z,0
2023-03-15T22:44:41.421Z,0
2023-03-15T22:50:04.105Z,0
2023-03-15T22:55:26.915Z,0
2023-03-15T23:00:54.796Z,0
2023-03-15T23:06:20.510Z,0
2023-03-15T23:11:43.384Z,0
2023-03-15T23:17:06.086Z,0
2023-03-15T23:22:28.579Z,0
2023-03-15T23:27:51.004Z,0
2023-03-15T23:33:13.616Z,0
2023-03-15T23:38:38.400Z,0
2023-03-15T23:44:06.400Z,0
2023-03-15T23:49:28.979Z,0
2023-03-15T23:54:57.481Z,0
